createdAt,value
2022-10-03T00:01:25.505Z,26.00
2022-10-03T00:03:00.800Z,19.02
2022-10-03T00:04:27.035Z,18.50
2022-10-03T00:05:52.039Z,29.25
2022-10-03T00:07:17.717Z,31.88
2022-10-03T00:08:47.634Z,31.67
2022-10-03T00:09:58.469Z,33.70
2022-10-03T00:11:17.814Z,36.47
2022-10-03T00:12:38.621Z,30.92
2022-10-03T00:13:53.417Z,32.20
2022-10-03T00:15:21.896Z,19.75
2022-10-03T00:16:50.544Z,22.88
2022-10-03T00:18:06.158Z,24.45
2022-10-03T00:19:25.560Z,28.90
2022-10-03T00:20:56.035Z,26.58
2022-10-03T00:22:31.394Z,20.73
2022-10-03T00:23:58.221Z,32.25
2022-10-03T00:25:03.021Z,43.30
2022-10-03T00:26:28.423Z,18.05
2022-10-03T00:27:41.003Z,16.35
2022-10-03T00:29:19.173Z,33.03
2022-10-03T00:30:23.372Z,38.17
2022-10-03T00:31:46.487Z,27.70
2022-10-03T00:32:57.625Z,42.58
2022-10-03T00:34:02.527Z,18.00
2022-10-03T00:35:20.102Z,33.85
2022-10-03T00:36:55.597Z,29.02
2022-10-03T00:38:16.338Z,31.38
2022-10-03T00:39:49.432Z,20.48
2022-10-03T00:41:03.539Z,25.85
2022-10-03T00:42:24.271Z,31.98
2022-10-03T00:43:52.480Z,36.47
2022-10-03T00:45:22.501Z,34.03
2022-10-03T00:47:01.575Z,23.85
2022-10-03T00:48:37.589Z,17.65
2022-10-03T00:50:04.210Z,33.08
2022-10-03T00:51:27.631Z,30.95
2022-10-03T00:52:50.076Z,22.52
2022-10-03T00:54:16.580Z,23.13
2022-10-03T00:55:36.990Z,24.48
2022-10-03T00:57:10.121Z,26.23
2022-10-03T00:58:39.158Z,28.13
2022-10-03T01:00:04.408Z,23.35
2022-10-03T01:01:29.301Z,26.70
2022-10-03T01:02:52.350Z,26.20
2022-10-03T01:05:38.832Z,18.52
2022-10-03T01:06:49.619Z,40.47
2022-10-03T01:08:22.442Z,26.33
2022-10-03T01:10:09.405Z,30.77
2022-10-03T01:11:32.596Z,17.08
2022-10-03T01:12:59.657Z,19.55
2022-10-03T01:14:10.699Z,20.95
2022-10-03T01:15:22.764Z,23.67
2022-10-03T01:16:37.848Z,38.08
2022-10-03T01:18:27.718Z,29.45
2022-10-03T01:19:59.224Z,21.23
2022-10-03T01:21:01.411Z,22.85
2022-10-03T01:22:15.471Z,22.25
2022-10-03T01:23:32.623Z,23.60
2022-10-03T01:24:53.548Z,32.33
2022-10-03T01:26:20.146Z,21.00
2022-10-03T01:28:04.027Z,21.08
2022-10-03T01:29:36.530Z,19.52
2022-10-03T01:30:43.796Z,21.70
2022-10-03T01:32:24.313Z,19.50
2022-10-03T01:33:51.013Z,24.85
2022-10-03T01:35:00.400Z,27.75
2022-10-03T01:36:25.631Z,22.33
2022-10-03T01:37:40.279Z,32.05
2022-10-03T01:39:06.028Z,29.33
2022-10-03T01:40:13.942Z,30.88
2022-10-03T01:41:33.649Z,26.27
2022-10-03T01:42:53.324Z,26.15
2022-10-03T01:44:02.196Z,23.23
2022-10-03T01:45:15.466Z,17.90
2022-10-03T01:46:22.682Z,26.55
2022-10-03T01:47:37.538Z,33.95
2022-10-03T01:48:48.983Z,29.38
2022-10-03T01:50:04.293Z,30.55
2022-10-03T01:51:19.192Z,19.60
2022-10-03T01:52:41.398Z,33.60
2022-10-03T01:53:52.245Z,23.95
2022-10-03T01:55:08.181Z,25.42
2022-10-03T01:56:31.423Z,19.45
2022-10-03T01:58:12.689Z,34.92
2022-10-03T01:59:45.507Z,19.33
2022-10-03T02:00:56.431Z,14.77
2022-10-03T02:02:25.128Z,15.50
2022-10-03T02:03:35.067Z,15.68
2022-10-03T02:04:55.912Z,17.88
2022-10-03T02:06:19.534Z,23.48
2022-10-03T02:07:27.447Z,23.63
2022-10-03T02:09:20.549Z,17.10
2022-10-03T02:10:48.040Z,29.45
2022-10-03T02:11:50.156Z,26.55
2022-10-03T02:13:17.375Z,14.60
2022-10-03T02:14:31.516Z,24.27
2022-10-03T02:15:58.250Z,13.55
2022-10-03T02:17:09.677Z,20.70
2022-10-03T02:18:28.478Z,19.17
2022-10-03T02:19:56.075Z,19.95
2022-10-03T02:21:20.883Z,28.52
2022-10-03T02:22:42.520Z,27.05
2022-10-03T02:23:46.070Z,27.05
2022-10-03T02:24:56.030Z,12.93
2022-10-03T02:26:17.054Z,13.13
2022-10-03T02:27:41.390Z,12.45
2022-10-03T02:28:54.660Z,18.08
2022-10-03T02:30:19.838Z,22.85
2022-10-03T02:31:25.000Z,11.43
2022-10-03T02:33:01.278Z,15.43
2022-10-03T02:34:34.200Z,17.95
2022-10-03T02:35:43.148Z,16.08
2022-10-03T02:37:27.362Z,18.17
2022-10-03T02:38:50.862Z,17.90
2022-10-03T02:40:30.826Z,14.77
2022-10-03T02:41:39.374Z,18.40
2022-10-03T02:43:17.242Z,37.70
2022-10-03T02:44:37.367Z,19.42
2022-10-03T02:46:07.386Z,13.65
2022-10-03T02:47:46.257Z,13.77
2022-10-03T02:48:48.419Z,12.95
2022-10-03T02:49:59.342Z,14.93
2022-10-03T02:51:09.990Z,12.48
2022-10-03T02:52:18.165Z,14.32
2022-10-03T02:53:59.926Z,18.13
2022-10-03T02:55:14.447Z,14.52
2022-10-03T02:56:28.483Z,23.67
2022-10-03T02:57:54.786Z,19.45
2022-10-03T02:59:19.274Z,21.38
2022-10-03T03:00:32.375Z,19.45
2022-10-03T03:02:02.712Z,21.58
2022-10-03T03:03:52.426Z,15.13
2022-10-03T03:05:19.232Z,16.60
2022-10-03T03:06:54.049Z,21.15
2022-10-03T03:08:17.936Z,19.77
2022-10-03T03:09:25.841Z,27.42
2022-10-03T03:10:46.200Z,19.15
2022-10-03T03:12:16.376Z,20.38
2022-10-03T03:13:38.610Z,21.75
2022-10-03T03:14:57.165Z,31.08
2022-10-03T03:16:11.361Z,31.25
2022-10-03T03:17:30.949Z,23.58
2022-10-03T03:18:53.562Z,22.88
2022-10-03T03:20:01.677Z,26.42
2022-10-03T03:21:27.947Z,21.23
2022-10-03T03:22:36.642Z,19.40
2022-10-03T03:23:44.512Z,31.88
2022-10-03T03:25:26.663Z,29.88
2022-10-03T03:26:51.419Z,30.85
2022-10-03T03:28:19.493Z,17.90
2022-10-03T03:29:46.920Z,29.92
2022-10-03T03:31:11.046Z,19.98
2022-10-03T03:32:33.915Z,24.50
2022-10-03T03:33:58.422Z,13.93
2022-10-03T03:35:33.792Z,16.27
2022-10-03T03:36:46.656Z,15.52
2022-10-03T03:38:00.639Z,23.77
2022-10-03T03:39:08.426Z,21.02
2022-10-03T03:40:29.491Z,15.63
2022-10-03T03:41:50.939Z,15.93
2022-10-03T03:43:25.127Z,12.10
2022-10-03T03:44:45.771Z,19.73
2022-10-03T03:46:19.473Z,16.38
2022-10-03T03:48:00.543Z,13.40
2022-10-03T03:49:17.647Z,16.25
2022-10-03T03:50:48.408Z,18.05
2022-10-03T03:52:20.596Z,14.77
2022-10-03T03:53:36.581Z,15.05
2022-10-03T03:55:16.427Z,11.90
2022-10-03T03:56:37.134Z,19.15
2022-10-03T03:58:00.839Z,16.45
2022-10-03T03:59:14.927Z,13.13
2022-10-03T04:00:31.277Z,13.82
2022-10-03T04:01:59.142Z,14.90
2022-10-03T04:03:30.726Z,10.13
2022-10-03T04:04:51.951Z,22.70
2022-10-03T04:06:22.550Z,12.90
2022-10-03T04:07:43.945Z,15.88
2022-10-03T04:09:16.920Z,16.42
2022-10-03T04:10:38.286Z,20.10
2022-10-03T04:12:07.782Z,26.00
2022-10-03T04:14:03.056Z,17.77
2022-10-03T04:15:23.215Z,17.50
2022-10-03T04:16:46.642Z,15.98
2022-10-03T04:18:14.226Z,13.25
2022-10-03T04:19:37.319Z,10.73
2022-10-03T04:21:10.043Z,13.25
2022-10-03T04:22:41.238Z,11.20
2022-10-03T04:23:52.397Z,14.10
2022-10-03T04:25:26.245Z,13.15
2022-10-03T04:26:59.573Z,9.90
2022-10-03T04:28:34.334Z,10.25
2022-10-03T04:30:02.205Z,13.60
2022-10-03T04:31:25.900Z,10.85
2022-10-03T04:32:57.216Z,14.30
2022-10-03T04:34:23.609Z,16.88
2022-10-03T04:35:49.281Z,16.63
2022-10-03T04:37:06.683Z,14.35
2022-10-03T04:38:32.190Z,12.90
2022-10-03T04:39:58.397Z,13.43
2022-10-03T04:41:19.752Z,13.23
2022-10-03T04:42:50.446Z,15.52
2022-10-03T04:44:31.592Z,14.88
2022-10-03T04:45:45.895Z,10.63
2022-10-03T04:47:17.639Z,15.25
2022-10-03T04:48:19.755Z,12.02
2022-10-03T04:49:39.002Z,9.65
2022-10-03T04:50:45.349Z,14.98
2022-10-03T04:52:07.004Z,12.48
2022-10-03T04:53:46.207Z,15.63
2022-10-03T04:55:02.506Z,14.02
2022-10-03T04:56:23.067Z,19.92
2022-10-03T04:57:35.844Z,19.13
2022-10-03T04:58:57.481Z,22.08
2022-10-03T05:00:08.560Z,15.48
2022-10-03T05:01:49.339Z,14.25
2022-10-03T05:03:13.192Z,16.23
2022-10-03T05:04:29.813Z,20.60
2022-10-03T05:05:47.414Z,14.57
2022-10-03T05:07:14.393Z,17.60
2022-10-03T05:08:39.462Z,18.95
2022-10-03T05:10:17.135Z,21.15
2022-10-03T05:11:58.648Z,15.95
2022-10-03T05:13:16.333Z,14.40
2022-10-03T05:14:22.360Z,12.85
2022-10-03T05:15:29.420Z,14.32
2022-10-03T05:16:40.229Z,18.92
2022-10-03T05:18:01.319Z,8.63
2022-10-03T05:19:37.244Z,9.15
2022-10-03T05:20:57.830Z,8.90
2022-10-03T05:22:19.079Z,10.38
2022-10-03T05:23:31.185Z,13.10
2022-10-03T05:24:34.174Z,8.88
2022-10-03T05:25:39.962Z,10.00
2022-10-03T05:26:53.894Z,11.23
2022-10-03T05:28:12.025Z,13.52
2022-10-03T05:29:25.238Z,9.77
2022-10-03T05:30:57.043Z,13.68
2022-10-03T05:32:16.864Z,41.70
2022-10-03T05:33:31.491Z,18.67
2022-10-03T05:34:55.312Z,28.05
2022-10-03T05:36:16.003Z,16.33
2022-10-03T05:37:20.854Z,32.42
2022-10-03T05:38:53.131Z,91.68
2022-10-03T05:40:15.067Z,49.10
2022-10-03T05:41:17.197Z,73.05
2022-10-03T05:43:46.119Z,34.20
2022-10-03T05:45:11.148Z,37.97
2022-10-03T05:46:21.136Z,35.40
2022-10-03T05:47:44.740Z,12.30
2022-10-03T05:49:32.288Z,27.63
2022-10-03T05:51:02.992Z,8.02
2022-10-03T05:52:50.297Z,18.63
2022-10-03T05:54:16.645Z,4.55
2022-10-03T05:55:41.969Z,19.48
2022-10-03T05:56:52.772Z,6.63
2022-10-03T05:58:20.092Z,6.38
2022-10-03T05:59:59.995Z,8.80
2022-10-03T06:01:30.855Z,6.70
2022-10-03T06:02:54.738Z,8.23
2022-10-03T06:04:42.041Z,6.80
2022-10-03T06:06:24.557Z,10.18
2022-10-03T06:08:04.833Z,15.18
2022-10-03T06:09:30.576Z,20.92
2022-10-03T06:10:51.908Z,8.48
2022-10-03T06:12:04.535Z,11.32
2022-10-03T06:13:37.843Z,21.63
2022-10-03T06:15:03.186Z,12.07
2022-10-03T06:16:16.820Z,9.00
2022-10-03T06:17:27.766Z,7.60
2022-10-03T06:18:54.969Z,9.02
2022-10-03T06:20:34.520Z,10.80
2022-10-03T06:21:57.621Z,9.73
2022-10-03T06:23:17.633Z,9.23
2022-10-03T06:24:49.257Z,16.38
2022-10-03T06:26:24.204Z,8.98
2022-10-03T06:27:38.291Z,11.23
2022-10-03T06:29:15.596Z,7.28
2022-10-03T06:30:32.774Z,8.10
2022-10-03T06:32:18.375Z,9.82
2022-10-03T06:33:58.580Z,10.88
2022-10-03T06:35:18.910Z,10.43
2022-10-03T06:36:45.765Z,18.08
2022-10-03T06:38:15.490Z,17.92
2022-10-03T06:39:55.179Z,18.77
2022-10-03T06:41:15.108Z,19.77
2022-10-03T06:42:41.203Z,21.98
2022-10-03T06:44:15.017Z,20.30
2022-10-03T06:45:41.886Z,18.65
2022-10-03T06:47:03.213Z,14.07
2022-10-03T06:48:23.632Z,14.50
2022-10-03T06:49:34.767Z,11.93
2022-10-03T06:50:51.865Z,17.65
2022-10-03T06:52:25.397Z,16.85
2022-10-03T06:53:40.541Z,20.95
2022-10-03T06:55:10.424Z,24.92
2022-10-03T06:56:44.190Z,15.98
2022-10-03T06:58:27.469Z,23.10
2022-10-03T06:59:47.642Z,21.35
2022-10-03T07:01:11.328Z,18.45
2022-10-03T07:02:48.697Z,18.85
2022-10-03T07:04:02.729Z,18.33
2022-10-03T07:05:25.079Z,21.00
2022-10-03T07:06:46.027Z,24.85
2022-10-03T07:08:11.985Z,22.38
2022-10-03T07:09:57.983Z,18.88
2022-10-03T07:11:14.431Z,19.13
2022-10-03T07:13:04.944Z,23.20
2022-10-03T07:14:35.205Z,25.40
2022-10-03T07:16:08.673Z,25.48
2022-10-03T07:17:11.157Z,21.85
2022-10-03T07:18:25.123Z,23.63
2022-10-03T07:20:12.274Z,21.13
2022-10-03T07:21:32.391Z,21.75
2022-10-03T07:22:52.937Z,19.23
2022-10-03T07:24:28.822Z,27.98
2022-10-03T07:26:06.993Z,18.70
2022-10-03T07:27:30.758Z,18.65
2022-10-03T07:28:56.695Z,21.35
2022-10-03T07:30:24.250Z,19.13
2022-10-03T07:31:32.285Z,19.90
2022-10-03T07:32:37.096Z,24.83
2022-10-03T07:33:53.001Z,26.15
2022-10-03T07:35:19.745Z,26.55
2022-10-03T07:36:49.470Z,23.85
2022-10-03T07:38:53.724Z,34.00
2022-10-03T07:40:33.227Z,33.72
2022-10-03T07:41:41.547Z,35.40
2022-10-03T07:43:11.540Z,30.20
2022-10-03T07:44:35.775Z,31.42
2022-10-03T07:45:45.245Z,29.23
2022-10-03T07:47:05.986Z,34.88
2022-10-03T07:48:28.431Z,28.75
2022-10-03T07:49:54.834Z,31.17
2022-10-03T07:51:14.159Z,27.50
2022-10-03T07:52:39.383Z,25.65
2022-10-03T07:54:18.675Z,25.35
2022-10-03T07:55:29.786Z,22.85
2022-10-03T07:57:09.749Z,29.30
2022-10-03T07:58:26.220Z,28.02
2022-10-03T07:59:46.323Z,25.05
2022-10-03T08:01:21.386Z,29.20
2022-10-03T08:02:26.792Z,31.60
2022-10-03T08:03:46.975Z,26.35
2022-10-03T08:05:12.111Z,28.45
2022-10-03T08:06:21.035Z,27.20
2022-10-03T08:07:51.110Z,24.30
2022-10-03T08:09:23.451Z,27.77
2022-10-03T08:11:06.542Z,25.10
2022-10-03T08:12:33.789Z,28.40
2022-10-03T08:14:18.617Z,29.35
2022-10-03T08:15:50.126Z,28.50
2022-10-03T08:17:22.805Z,26.27
2022-10-03T08:19:02.381Z,24.48
2022-10-03T08:20:26.245Z,26.13
2022-10-03T08:21:45.911Z,23.58
2022-10-03T08:23:25.368Z,29.95
2022-10-03T08:24:48.950Z,25.83
2022-10-03T08:26:09.146Z,25.75
2022-10-03T08:27:26.202Z,28.73
2022-10-03T08:28:44.995Z,25.65
2022-10-03T08:29:55.778Z,28.02
2022-10-03T08:31:03.814Z,24.35
2022-10-03T08:32:08.644Z,36.42
2022-10-03T08:33:31.694Z,27.42
2022-10-03T08:36:48.385Z,24.77
2022-10-03T08:38:28.063Z,28.85
2022-10-03T08:39:48.260Z,28.67
2022-10-03T08:40:56.949Z,29.98
2022-10-03T08:41:59.065Z,25.77
2022-10-03T08:43:10.795Z,22.98
2022-10-03T08:44:46.725Z,30.10
2022-10-03T08:46:07.079Z,25.33
2022-10-03T08:47:25.307Z,25.08
2022-10-03T08:48:46.363Z,20.05
2022-10-03T08:50:12.711Z,23.05
2022-10-03T08:51:38.054Z,21.98
2022-10-03T08:53:13.920Z,24.92
2022-10-03T08:54:19.343Z,20.60
2022-10-03T08:55:55.641Z,20.27
2022-10-03T08:57:25.085Z,20.77
2022-10-03T08:58:52.101Z,30.48
2022-10-03T09:00:03.382Z,15.70
2022-10-03T09:01:31.147Z,21.13
2022-10-03T09:05:02.339Z,22.83
2022-10-03T09:06:58.593Z,19.45
2022-10-03T09:08:51.049Z,16.85
2022-10-03T09:09:55.951Z,22.35
2022-10-03T09:11:10.693Z,19.77
2022-10-03T09:12:50.568Z,19.17
2022-10-03T09:14:29.552Z,20.42
2022-10-03T09:16:09.166Z,21.17
2022-10-03T09:18:00.923Z,22.15
2022-10-03T09:19:05.782Z,22.13
2022-10-03T09:20:26.397Z,19.70
2022-10-03T09:21:46.920Z,18.40
2022-10-03T09:23:30.433Z,21.73
2022-10-03T09:25:09.472Z,20.25
2022-10-03T09:26:47.956Z,28.25
2022-10-03T09:27:58.992Z,25.17
2022-10-03T09:29:38.048Z,25.63
2022-10-03T09:30:57.480Z,20.52
2022-10-03T09:32:43.359Z,17.83
2022-10-03T09:34:25.893Z,19.70
2022-10-03T09:35:46.677Z,20.90
2022-10-03T09:37:07.114Z,21.17
2022-10-03T09:38:33.955Z,20.90
2022-10-03T09:39:54.570Z,24.92
2022-10-03T09:41:11.863Z,21.90
2022-10-03T09:42:35.376Z,24.30
2022-10-03T09:43:53.143Z,24.75
2022-10-03T09:45:16.446Z,21.48
2022-10-03T09:46:33.625Z,22.90
2022-10-03T09:48:16.103Z,21.08
2022-10-03T09:49:42.395Z,21.80
2022-10-03T09:51:10.886Z,20.67
2022-10-03T09:52:44.451Z,17.13
2022-10-03T09:54:18.602Z,17.23
2022-10-03T09:56:06.857Z,23.63
2022-10-03T09:57:25.129Z,18.35
2022-10-03T09:58:55.882Z,21.42
2022-10-03T10:00:08.707Z,19.73
2022-10-03T10:01:20.059Z,20.02
2022-10-03T10:02:46.558Z,19.73
2022-10-03T10:04:32.662Z,21.17
2022-10-03T10:06:08.961Z,16.58
2022-10-03T10:07:48.420Z,20.98
2022-10-03T10:09:16.667Z,17.58
2022-10-03T10:10:27.897Z,16.58
2022-10-03T10:11:34.944Z,15.73
2022-10-03T10:13:19.124Z,17.10
2022-10-03T10:14:40.141Z,18.48
2022-10-03T10:16:08.272Z,18.35
2022-10-03T10:17:22.852Z,18.20
2022-10-03T10:18:47.787Z,13.35
2022-10-03T10:20:01.185Z,17.17
2022-10-03T10:21:42.922Z,20.80
2022-10-03T10:23:21.510Z,13.88
2022-10-03T10:24:53.022Z,10.00
2022-10-03T10:26:20.236Z,11.40
2022-10-03T10:27:44.215Z,14.30
2022-10-03T10:28:55.254Z,13.52
2022-10-03T10:30:09.500Z,15.32
2022-10-03T10:31:38.635Z,16.13
2022-10-03T10:33:00.600Z,16.08
2022-10-03T10:34:14.553Z,13.02
2022-10-03T10:35:35.280Z,15.45
2022-10-03T10:36:58.531Z,20.02
2022-10-03T10:38:25.969Z,17.05
2022-10-03T10:39:33.898Z,12.68
2022-10-03T10:40:59.843Z,16.52
2022-10-03T10:42:29.472Z,12.77
2022-10-03T10:43:59.362Z,16.50
2022-10-03T10:45:47.071Z,13.18
2022-10-03T10:47:27.371Z,15.32
2022-10-03T10:49:04.637Z,14.70
2022-10-03T10:50:24.832Z,14.43
2022-10-03T10:51:45.079Z,17.48
2022-10-03T10:52:58.907Z,13.88
2022-10-03T10:54:36.786Z,14.20
2022-10-03T10:56:15.983Z,17.20
2022-10-03T10:58:12.248Z,18.98
2022-10-03T10:59:48.293Z,13.98
2022-10-03T11:01:15.753Z,13.95
2022-10-03T11:02:53.310Z,14.05
2022-10-03T11:04:19.445Z,16.83
2022-10-03T11:05:42.429Z,17.20
2022-10-03T11:08:45.381Z,18.00
2022-10-03T11:10:25.231Z,11.23
2022-10-03T11:11:36.251Z,14.23
2022-10-03T11:13:46.091Z,19.88
2022-10-03T11:15:28.667Z,14.10
2022-10-03T11:16:49.295Z,12.15
2022-10-03T11:18:21.100Z,9.45
2022-10-03T11:19:41.854Z,12.45
2022-10-03T11:21:01.927Z,8.55
2022-10-03T11:22:48.360Z,8.88
2022-10-03T11:24:27.104Z,13.68
2022-10-03T11:26:06.776Z,11.50
2022-10-03T11:27:24.319Z,12.75
2022-10-03T11:28:47.608Z,13.38
2022-10-03T11:30:09.720Z,9.80
2022-10-03T11:32:08.236Z,11.50
2022-10-03T11:33:40.440Z,11.52
2022-10-03T11:34:54.055Z,11.90
2022-10-03T11:36:14.713Z,9.98
2022-10-03T11:37:39.586Z,14.07
2022-10-03T11:39:05.320Z,12.52
2022-10-03T11:40:41.110Z,12.35
2022-10-03T11:42:02.640Z,8.40
2022-10-03T11:43:42.676Z,13.00
2022-10-03T11:44:58.631Z,11.70
2022-10-03T11:46:20.701Z,10.68
2022-10-03T11:47:51.114Z,10.13
2022-10-03T11:49:22.409Z,10.30
2022-10-03T11:50:47.634Z,11.82
2022-10-03T11:51:57.032Z,11.57
2022-10-03T11:53:37.222Z,14.13
2022-10-03T11:54:44.029Z,12.50
2022-10-03T11:56:14.998Z,7.75
2022-10-03T11:57:32.390Z,8.98
2022-10-03T11:59:12.651Z,10.80
2022-10-03T12:00:20.670Z,12.02
2022-10-03T12:01:28.870Z,12.80
2022-10-03T12:03:08.320Z,13.48
2022-10-03T12:04:17.505Z,12.65
2022-10-03T12:05:44.361Z,10.27
2022-10-03T12:07:34.027Z,8.55
2022-10-03T12:08:55.540Z,10.20
2022-10-03T12:10:32.801Z,11.50
2022-10-03T12:12:30.655Z,10.70
2022-10-03T12:13:38.679Z,6.78
2022-10-03T12:14:47.072Z,6.45
2022-10-03T12:15:52.103Z,7.28
2022-10-03T12:17:16.685Z,8.77
2022-10-03T12:18:42.397Z,6.20
2022-10-03T12:20:02.249Z,9.57
2022-10-03T12:21:17.384Z,10.98
2022-10-03T12:22:42.095Z,12.60
2022-10-03T12:23:57.066Z,8.82
2022-10-03T12:25:19.047Z,15.10
2022-10-03T12:26:31.973Z,9.73
2022-10-03T12:27:49.325Z,7.75
2022-10-03T12:28:55.988Z,7.40
2022-10-03T12:30:02.491Z,9.05
2022-10-03T12:31:21.381Z,8.57
2022-10-03T12:32:48.825Z,6.28
2022-10-03T12:34:32.307Z,6.68
2022-10-03T12:36:03.807Z,7.88
2022-10-03T12:37:34.106Z,5.78
2022-10-03T12:38:51.419Z,6.68
2022-10-03T12:40:33.631Z,6.63
2022-10-03T12:41:55.850Z,7.78
2022-10-03T12:43:10.639Z,9.50
2022-10-03T12:44:37.322Z,7.45
2022-10-03T12:45:43.273Z,7.38
2022-10-03T12:46:59.847Z,6.07
2022-10-03T12:48:19.646Z,6.97
2022-10-03T12:49:40.716Z,5.38
2022-10-03T12:51:04.010Z,7.80
2022-10-03T12:52:39.525Z,6.15
2022-10-03T12:54:24.660Z,7.05
2022-10-03T12:55:33.574Z,9.30
2022-10-03T12:56:48.357Z,9.95
2022-10-03T12:58:14.605Z,8.32
2022-10-03T12:59:40.774Z,8.27
2022-10-03T13:01:04.830Z,4.95
2022-10-03T13:02:18.923Z,11.45
2022-10-03T13:03:30.904Z,27.77
2022-10-03T13:05:10.408Z,16.23
2022-10-03T13:07:01.705Z,11.50
2022-10-03T13:08:31.803Z,7.35
2022-10-03T13:10:12.863Z,9.77
2022-10-03T13:11:51.037Z,37.60
2022-10-03T13:12:56.072Z,16.00
2022-10-03T13:14:06.630Z,10.50
2022-10-03T13:15:45.861Z,9.77
2022-10-03T13:16:54.234Z,5.60
2022-10-03T13:17:56.380Z,9.73
2022-10-03T13:19:20.389Z,5.15
2022-10-03T13:20:34.214Z,7.72
2022-10-03T13:21:54.375Z,7.07
2022-10-03T13:23:24.374Z,7.97
2022-10-03T13:24:32.092Z,12.68
2022-10-03T13:25:48.399Z,9.75
2022-10-03T13:27:09.060Z,6.88
2022-10-03T13:28:27.315Z,10.85
2022-10-03T13:29:43.881Z,7.82
2022-10-03T13:30:54.010Z,9.48
2022-10-03T13:32:17.075Z,7.75
2022-10-03T13:33:32.744Z,6.78
2022-10-03T13:34:50.079Z,4.57
2022-10-03T13:36:10.086Z,7.53
2022-10-03T13:37:37.078Z,4.07
2022-10-03T13:39:07.869Z,5.15
2022-10-03T13:40:15.821Z,7.60
2022-10-03T13:41:29.882Z,8.10
2022-10-03T13:42:53.702Z,4.88
2022-10-03T13:44:14.831Z,5.15
2022-10-03T13:45:26.267Z,5.90
2022-10-03T13:46:44.942Z,5.53
2022-10-03T13:48:05.193Z,4.78
2022-10-03T13:49:35.564Z,5.53
2022-10-03T13:51:02.285Z,5.57
2022-10-03T13:52:22.118Z,5.32
2022-10-03T13:53:43.315Z,5.57
2022-10-03T13:55:36.354Z,5.18
2022-10-03T13:56:55.766Z,6.53
2022-10-03T13:58:38.888Z,5.25
2022-10-03T14:00:19.889Z,4.47
2022-10-03T14:01:34.907Z,5.45
2022-10-03T14:03:04.826Z,6.22
2022-10-03T14:04:35.612Z,4.97
2022-10-03T14:06:00.633Z,7.32
2022-10-03T14:07:13.876Z,5.85
2022-10-03T14:08:38.137Z,5.28
2022-10-03T14:10:09.122Z,7.10
2022-10-03T14:11:22.725Z,8.68
2022-10-03T14:13:02.340Z,11.95
2022-10-03T14:14:38.217Z,15.07
2022-10-03T14:16:00.808Z,14.80
2022-10-03T14:17:24.521Z,7.03
2022-10-03T14:18:59.488Z,7.85
2022-10-03T14:20:07.496Z,6.63
2022-10-03T14:21:32.092Z,8.43
2022-10-03T14:22:46.135Z,10.55
2022-10-03T14:23:59.379Z,9.38
2022-10-03T14:25:28.341Z,8.23
2022-10-03T14:27:02.178Z,8.20
2022-10-03T14:28:20.199Z,7.75
2022-10-03T14:29:43.982Z,7.22
2022-10-03T14:31:08.009Z,8.23
2022-10-03T14:32:46.259Z,6.40
2022-10-03T14:34:02.827Z,7.13
2022-10-03T14:35:19.347Z,7.38
2022-10-03T14:36:46.580Z,6.78
2022-10-03T14:38:00.281Z,6.82
2022-10-03T14:39:36.750Z,7.05
2022-10-03T14:40:48.117Z,8.48
2022-10-03T14:41:56.170Z,11.50
2022-10-03T14:43:35.784Z,6.00
2022-10-03T14:44:43.644Z,11.10
2022-10-03T14:45:49.665Z,9.90
2022-10-03T14:46:59.187Z,10.38
2022-10-03T14:48:08.213Z,10.55
2022-10-03T14:49:48.520Z,7.05
2022-10-03T14:50:44.423Z,11.53
2022-10-03T14:51:54.937Z,7.15
2022-10-03T14:53:10.856Z,7.65
2022-10-03T14:54:21.404Z,7.55
2022-10-03T14:55:30.272Z,7.38
2022-10-03T14:56:41.146Z,12.82
2022-10-03T14:58:11.457Z,10.07
2022-10-03T14:59:26.026Z,11.20
2022-10-03T15:00:43.467Z,9.20
2022-10-03T15:01:54.596Z,8.98
2022-10-03T15:02:56.915Z,9.40
2022-10-03T15:04:03.998Z,7.18
2022-10-03T15:05:19.009Z,6.82
2022-10-03T15:06:33.238Z,11.07
2022-10-03T15:07:39.255Z,6.50
2022-10-03T15:08:45.374Z,12.95
2022-10-03T15:09:50.303Z,9.35
2022-10-03T15:10:55.712Z,11.18
2022-10-03T15:12:24.436Z,8.90
2022-10-03T15:13:28.929Z,7.30
2022-10-03T15:14:35.766Z,10.20
2022-10-03T15:15:40.322Z,6.25
2022-10-03T15:17:03.924Z,10.43
2022-10-03T15:18:13.292Z,9.00
2022-10-03T15:19:20.740Z,7.18
2022-10-03T15:20:36.731Z,8.52
2022-10-03T15:21:44.048Z,8.73
2022-10-03T15:22:55.902Z,8.60
2022-10-03T15:24:02.676Z,7.05
2022-10-03T15:25:13.950Z,8.45
2022-10-03T15:26:20.653Z,6.18
2022-10-03T15:27:24.092Z,5.32
2022-10-03T15:28:41.204Z,5.47
2022-10-03T15:29:45.524Z,6.38
2022-10-03T15:30:50.763Z,9.00
2022-10-03T15:31:54.953Z,5.07
2022-10-03T15:33:19.759Z,11.32
2022-10-03T15:34:27.614Z,6.93
2022-10-03T15:35:31.487Z,9.30
2022-10-03T15:36:38.464Z,9.65
2022-10-03T15:37:46.917Z,9.40
2022-10-03T15:38:53.952Z,9.90
2022-10-03T15:40:02.762Z,8.23
2022-10-03T15:41:36.834Z,7.05
2022-10-03T15:42:53.692Z,5.85
2022-10-03T15:44:04.869Z,10.70
2022-10-03T15:45:17.233Z,11.48
2022-10-03T15:46:36.381Z,7.18
2022-10-03T15:47:45.106Z,5.95
2022-10-03T15:48:54.082Z,11.30
2022-10-03T15:50:07.119Z,9.02
2022-10-03T15:51:19.595Z,8.90
2022-10-03T15:52:31.647Z,8.93
2022-10-03T15:53:38.003Z,9.82
2022-10-03T15:54:45.371Z,7.50
2022-10-03T15:55:52.000Z,7.00
2022-10-03T15:56:58.201Z,7.97
2022-10-03T15:58:22.381Z,7.10
2022-10-03T15:59:34.483Z,8.40
2022-10-03T16:00:37.818Z,4.50
2022-10-03T16:01:47.121Z,4.47
2022-10-03T16:02:55.959Z,7.05
2022-10-03T16:04:01.790Z,10.13
2022-10-03T16:05:19.545Z,10.13
2022-10-03T16:06:49.759Z,6.80
2022-10-03T16:07:54.773Z,4.57
2022-10-03T16:09:11.761Z,8.90
2022-10-03T16:10:20.394Z,7.40
2022-10-03T16:11:28.504Z,7.43
2022-10-03T16:13:15.999Z,7.65
2022-10-03T16:14:24.964Z,7.60
2022-10-03T16:15:41.485Z,10.20
2022-10-03T16:16:50.245Z,6.65
2022-10-03T16:17:59.484Z,5.53
2022-10-03T16:19:24.506Z,7.03
2022-10-03T16:20:39.168Z,6.38
2022-10-03T16:22:18.700Z,8.85
2022-10-03T16:23:34.923Z,6.95
2022-10-03T16:25:06.720Z,8.48
2022-10-03T16:26:20.679Z,8.57
2022-10-03T16:27:26.085Z,7.97
2022-10-03T16:28:43.258Z,10.82
2022-10-03T16:30:14.781Z,3.95
2022-10-03T16:31:20.786Z,7.60
2022-10-03T16:32:26.155Z,9.70
2022-10-03T16:33:34.715Z,8.30
2022-10-03T16:34:43.667Z,7.20
2022-10-03T16:35:50.698Z,7.43
2022-10-03T16:36:54.234Z,6.88
2022-10-03T16:37:56.919Z,9.48
2022-10-03T16:39:01.596Z,9.93
2022-10-03T16:40:07.311Z,19.85
2022-10-03T16:41:36.313Z,19.90
2022-10-03T16:42:45.244Z,18.67
2022-10-03T16:44:01.739Z,15.30
2022-10-03T16:45:05.849Z,15.20
2022-10-03T16:46:19.161Z,11.38
2022-10-03T16:47:36.389Z,13.23
2022-10-03T16:49:02.151Z,16.35
2022-10-03T16:50:26.141Z,13.35
2022-10-03T16:51:39.653Z,15.20
2022-10-03T16:52:45.597Z,11.25
2022-10-03T16:53:54.338Z,10.05
2022-10-03T16:55:04.698Z,8.80
2022-10-03T16:56:08.213Z,11.55
2022-10-03T16:57:18.994Z,8.68
2022-10-03T16:58:45.626Z,9.23
2022-10-03T16:59:51.983Z,10.75
2022-10-03T17:01:28.208Z,10.25
2022-10-03T17:02:30.086Z,11.57
2022-10-03T17:03:40.902Z,24.58
2022-10-03T17:04:54.917Z,37.33
2022-10-03T17:06:03.373Z,49.25
2022-10-03T17:07:23.639Z,42.92
2022-10-03T17:08:41.849Z,39.70
2022-10-03T17:09:53.325Z,39.20
2022-10-03T17:11:00.200Z,37.63
2022-10-03T17:12:06.195Z,46.30
2022-10-03T17:13:55.303Z,32.30
2022-10-03T17:15:22.370Z,23.48
2022-10-03T17:16:45.025Z,19.48
2022-10-03T17:17:59.764Z,20.02
2022-10-03T17:19:20.829Z,16.35
2022-10-03T17:20:41.947Z,13.55
2022-10-03T17:21:54.528Z,16.85
2022-10-03T17:23:02.106Z,16.98
2022-10-03T17:24:11.807Z,19.92
2022-10-03T17:25:32.431Z,20.48
2022-10-03T17:26:39.198Z,17.33
2022-10-03T17:27:43.192Z,20.65
2022-10-03T17:29:03.478Z,14.25
2022-10-03T17:30:19.965Z,13.02
2022-10-03T17:31:35.912Z,11.60
2022-10-03T17:32:42.208Z,12.32
2022-10-03T17:33:52.740Z,14.85
2022-10-03T17:35:17.538Z,11.30
2022-10-03T17:36:56.680Z,7.55
2022-10-03T17:38:19.608Z,10.25
2022-10-03T17:39:47.799Z,7.50
2022-10-03T17:41:08.823Z,10.93
2022-10-03T17:42:32.794Z,9.30
2022-10-03T17:43:47.630Z,11.48
2022-10-03T17:45:01.619Z,11.68
2022-10-03T17:46:27.388Z,11.10
2022-10-03T17:47:48.350Z,12.43
2022-10-03T17:49:07.023Z,10.77
2022-10-03T17:50:20.914Z,10.88
2022-10-03T17:51:34.992Z,10.38
2022-10-03T17:52:42.815Z,10.57
2022-10-03T17:53:53.184Z,11.88
2022-10-03T17:55:04.795Z,12.32
2022-10-03T17:56:13.065Z,12.60
2022-10-03T17:57:38.411Z,12.50